createdAt,value
2019-01-14T00:02:22.972Z,99758.56
2019-01-14T00:04:55.563Z,99777.63
2019-01-14T00:07:21.799Z,99774.77
2019-01-14T00:09:50.189Z,99770.09
2019-01-14T00:12:18.597Z,99766.69
2019-01-14T00:14:47.279Z,99781.51
2019-01-14T00:17:15.702Z,99766.59
2019-01-14T00:19:44.246Z,99770.78
2019-01-14T00:22:13.274Z,99771.58
2019-01-14T00:24:42.021Z,99783.78
2019-01-14T00:27:10.689Z,99800.22
2019-01-14T00:29:39.420Z,99795.50
2019-01-14T00:32:08.083Z,99796.33
2019-01-14T00:34:36.571Z,99800.96
2019-01-14T00:37:05.390Z,99803.47
2019-01-14T00:39:33.807Z,99811.03
2019-01-14T00:42:02.503Z,99813.19
2019-01-14T00:44:31.158Z,99827.12
2019-01-14T00:46:59.866Z,99819.04
2019-01-14T00:49:28.534Z,99826.66
2019-01-14T00:51:57.196Z,99831.74
2019-01-14T00:54:25.896Z,99839.33
2019-01-14T00:56:56.108Z,99846.06
2019-01-14T00:59:24.783Z,99849.84
2019-01-14T01:01:53.184Z,99850.23
2019-01-14T01:04:21.882Z,99844.72
2019-01-14T01:06:52.949Z,99846.77
2019-01-14T01:09:21.800Z,99856.08
2019-01-14T01:11:50.465Z,99850.12
2019-01-14T01:14:18.875Z,99850.05
2019-01-14T01:16:47.627Z,99846.16
2019-01-14T01:19:16.409Z,99853.31
2019-01-14T01:21:44.830Z,99843.52
2019-01-14T01:24:13.243Z,99853.23
2019-01-14T01:26:41.904Z,99854.07
2019-01-14T01:29:10.592Z,99864.69
2019-01-14T01:31:39.269Z,99872.75
2019-01-14T01:34:07.771Z,99870.19
2019-01-14T01:36:36.429Z,99876.97
2019-01-14T01:39:07.246Z,99871.04
2019-01-14T01:41:36.004Z,99870.70
2019-01-14T01:44:04.806Z,99874.11
2019-01-14T01:46:33.643Z,99883.44
2019-01-14T01:49:02.361Z,99881.78
2019-01-14T01:51:31.079Z,99883.92
2019-01-14T01:53:59.828Z,99885.20
2019-01-14T01:56:28.323Z,99899.63
2019-01-14T01:58:57.134Z,99896.23
2019-01-14T02:01:25.798Z,99901.77
2019-01-14T02:03:54.550Z,99909.41
2019-01-14T02:06:23.521Z,99906.52
2019-01-14T02:08:52.210Z,99919.16
2019-01-14T02:11:20.895Z,99922.63
2019-01-14T02:13:50.234Z,99913.74
2019-01-14T02:16:18.639Z,99922.20
2019-01-14T02:18:47.338Z,99935.77
2019-01-14T02:21:16.011Z,99931.98
2019-01-14T02:23:44.699Z,99934.55
2019-01-14T02:26:13.378Z,99950.23
2019-01-14T02:28:42.028Z,99939.26
2019-01-14T02:31:10.859Z,99939.70
2019-01-14T02:33:39.524Z,99944.36
2019-01-14T02:36:08.270Z,99952.42
2019-01-14T02:38:36.955Z,99958.38
2019-01-14T02:41:05.791Z,99960.92
2019-01-14T02:43:34.479Z,99967.66
2019-01-14T02:46:03.301Z,99957.45
2019-01-14T02:48:32.026Z,99971.82
2019-01-14T02:51:02.049Z,99973.05
2019-01-14T02:53:30.810Z,99974.34
2019-01-14T02:56:00.081Z,99980.25
2019-01-14T02:58:28.787Z,99979.40
2019-01-14T03:00:57.471Z,99982.38
2019-01-14T03:03:26.125Z,99970.16
2019-01-14T03:05:54.572Z,99979.47
2019-01-14T03:08:22.957Z,99989.59
2019-01-14T03:10:51.406Z,99978.17
2019-01-14T03:13:20.140Z,99976.08
2019-01-14T03:15:48.611Z,99984.58
2019-01-14T03:18:17.319Z,99977.37
2019-01-14T03:20:45.990Z,99998.16
2019-01-14T03:23:14.639Z,99995.64
2019-01-14T03:25:43.426Z,99999.45
2019-01-14T03:28:12.087Z,99991.49
2019-01-14T03:30:40.565Z,99991.93
2019-01-14T03:33:09.234Z,100012.26
2019-01-14T03:35:37.685Z,100003.83
2019-01-14T03:38:06.469Z,100008.08
2019-01-14T03:40:35.166Z,100008.94
2019-01-14T03:43:05.629Z,100028.82
2019-01-14T03:45:34.397Z,100026.67
2019-01-14T03:48:03.235Z,100022.01
2019-01-14T03:50:31.758Z,100016.07
2019-01-14T03:53:00.454Z,100019.86
2019-01-14T03:55:28.942Z,100027.89
2019-01-14T03:57:57.767Z,100029.66
2019-01-14T04:00:26.595Z,100026.28
2019-01-14T04:02:55.320Z,100030.92
2019-01-14T04:05:23.770Z,100047.42
2019-01-14T04:07:52.479Z,100030.81
2019-01-14T04:10:21.265Z,100031.20
2019-01-14T04:12:50.597Z,100032.82
2019-01-14T04:15:20.235Z,100037.00
2019-01-14T04:17:49.045Z,100047.97
2019-01-14T04:20:18.868Z,100046.25
2019-01-14T04:22:47.744Z,100042.02
2019-01-14T04:25:16.292Z,100068.23
2019-01-14T04:27:44.994Z,100052.52
2019-01-14T04:30:16.664Z,100065.63
2019-01-14T04:32:45.316Z,100061.47
2019-01-14T04:35:14.007Z,100069.03
2019-01-14T04:37:42.822Z,100069.86
2019-01-14T04:40:16.003Z,100059.67
2019-01-14T04:42:44.848Z,100058.43
2019-01-14T04:45:17.185Z,100060.53
2019-01-14T04:47:46.331Z,100068.98
2019-01-14T04:50:17.867Z,100067.27
2019-01-14T04:52:46.623Z,100073.59
2019-01-14T04:55:15.216Z,100062.96
2019-01-14T04:57:44.676Z,100071.02
2019-01-14T05:00:15.899Z,100084.99
2019-01-14T05:02:44.619Z,100080.33
2019-01-14T05:05:13.979Z,100079.88
2019-01-14T05:07:43.053Z,100089.19
2019-01-14T05:10:17.332Z,100093.86
2019-01-14T05:12:46.162Z,100101.00
2019-01-14T05:15:14.976Z,100108.59
2019-01-14T05:17:43.818Z,100106.80
2019-01-14T05:20:23.740Z,100119.84
2019-01-14T05:22:52.661Z,100135.41
2019-01-14T05:25:21.356Z,100116.72
2019-01-14T05:27:50.139Z,100125.55
2019-01-14T05:30:20.581Z,100115.71
2019-01-14T05:32:49.399Z,100119.94
2019-01-14T05:35:18.151Z,100113.14
2019-01-14T05:37:47.391Z,100117.42
2019-01-14T05:40:23.801Z,100118.25
2019-01-14T05:42:52.362Z,100126.75
2019-01-14T05:45:21.037Z,100137.41
2019-01-14T05:47:49.470Z,100136.14
2019-01-14T05:50:22.613Z,100142.05
2019-01-14T05:52:51.299Z,100155.19
2019-01-14T05:55:20.945Z,100147.19
2019-01-14T05:57:49.492Z,100148.90
2019-01-14T06:00:31.710Z,100157.38
2019-01-14T06:03:00.470Z,100162.48
2019-01-14T06:05:29.169Z,100163.75
2019-01-14T06:07:57.864Z,100170.10
2019-01-14T06:10:27.100Z,100174.35
2019-01-14T06:12:55.780Z,100170.98
2019-01-14T06:15:24.279Z,100176.06
2019-01-14T06:17:53.011Z,100180.34
2019-01-14T06:20:23.481Z,100175.30
2019-01-14T06:22:52.168Z,100177.02
2019-01-14T06:25:20.674Z,100182.54
2019-01-14T06:27:49.320Z,100179.14
2019-01-14T06:30:23.415Z,100192.25
2019-01-14T06:32:52.133Z,100185.05
2019-01-14T06:35:21.047Z,100182.92
2019-01-14T06:37:52.528Z,100188.83
2019-01-14T06:40:22.298Z,100184.19
2019-01-14T06:42:50.709Z,100185.46
2019-01-14T06:45:19.290Z,100191.39
2019-01-14T06:47:48.106Z,100200.28
2019-01-14T06:50:18.844Z,100202.00
2019-01-14T06:52:47.687Z,100204.50
2019-01-14T06:55:16.626Z,100207.39
2019-01-14T06:57:45.188Z,100212.83
2019-01-14T07:00:16.760Z,100219.11
2019-01-14T07:02:45.630Z,100225.02
2019-01-14T07:05:14.605Z,100236.41
2019-01-14T07:07:43.294Z,100243.52
2019-01-14T07:10:15.197Z,100261.66
2019-01-14T07:12:43.830Z,100282.83
2019-01-14T07:15:12.369Z,100281.52
2019-01-14T07:17:40.871Z,100287.05
2019-01-14T07:20:12.030Z,100292.82
2019-01-14T07:22:40.768Z,100295.69
2019-01-14T07:25:10.514Z,100293.11
2019-01-14T07:27:39.347Z,100303.22
2019-01-14T07:30:13.972Z,100305.30
2019-01-14T07:32:42.707Z,100304.08
2019-01-14T07:35:11.651Z,100320.59
2019-01-14T07:37:40.502Z,100328.30
2019-01-14T07:40:14.774Z,100341.26
2019-01-14T07:42:43.672Z,100349.31
2019-01-14T07:45:15.369Z,100340.73
2019-01-14T07:47:44.067Z,100342.53
2019-01-14T07:50:15.907Z,100339.09
2019-01-14T07:52:44.697Z,100354.43
2019-01-14T07:55:13.526Z,100358.23
2019-01-14T07:57:42.226Z,100357.33
2019-01-14T08:00:19.342Z,100359.54
2019-01-14T08:02:48.280Z,100360.36
2019-01-14T08:05:17.087Z,100363.34
2019-01-14T08:07:45.739Z,100373.89
2019-01-14T08:10:14.682Z,100382.63
2019-01-14T08:12:43.512Z,100393.58
2019-01-14T08:15:15.005Z,100401.19
2019-01-14T08:17:43.460Z,100398.11
2019-01-14T08:20:12.795Z,100413.05
2019-01-14T08:22:41.646Z,100428.34
2019-01-14T08:25:12.498Z,100431.69
2019-01-14T08:27:41.385Z,100433.32
2019-01-14T08:30:13.147Z,100439.11
2019-01-14T08:32:41.597Z,100441.20
2019-01-14T08:35:10.140Z,100450.85
2019-01-14T08:37:38.796Z,100451.38
2019-01-14T08:40:10.259Z,100447.53
2019-01-14T08:42:39.069Z,100455.23
2019-01-14T08:45:09.601Z,100457.76
2019-01-14T08:47:38.107Z,100463.59
2019-01-14T08:50:09.750Z,100468.14
2019-01-14T08:52:38.503Z,100474.47
2019-01-14T08:55:07.840Z,100476.55
2019-01-14T08:57:36.421Z,100478.04
2019-01-14T09:00:08.810Z,100491.20
2019-01-14T09:02:37.533Z,100487.77
2019-01-14T09:05:07.625Z,100491.62
2019-01-14T09:07:36.352Z,100494.70
2019-01-14T09:10:08.154Z,100499.95
2019-01-14T09:12:36.596Z,100495.19
2019-01-14T09:15:08.084Z,100502.65
2019-01-14T09:17:36.911Z,100499.21
2019-01-14T09:20:08.658Z,100504.28
2019-01-14T09:22:37.403Z,100511.93
2019-01-14T09:25:08.249Z,100517.00
2019-01-14T09:27:36.944Z,100516.19
2019-01-14T09:30:11.676Z,100516.23
2019-01-14T09:32:40.335Z,100526.47
2019-01-14T09:35:09.174Z,100521.80
2019-01-14T09:37:37.936Z,100523.07
2019-01-14T09:40:09.423Z,100526.05
2019-01-14T09:42:37.895Z,100525.20
2019-01-14T09:45:07.484Z,100546.84
2019-01-14T09:47:36.234Z,100540.59
2019-01-14T09:50:07.406Z,100542.89
2019-01-14T09:52:36.177Z,100549.86
2019-01-14T09:55:07.928Z,100544.02
2019-01-14T09:57:36.596Z,100549.55
2019-01-14T10:00:08.152Z,100549.55
2019-01-14T10:02:37.128Z,100549.34
2019-01-14T10:05:09.043Z,100556.55
2019-01-14T10:07:38.769Z,100561.63
2019-01-14T10:10:10.370Z,100567.60
2019-01-14T10:12:39.099Z,100575.20
2019-01-14T10:15:10.809Z,100575.98
2019-01-14T10:17:40.327Z,100573.28
2019-01-14T10:20:10.530Z,100574.09
2019-01-14T10:22:39.344Z,100578.25
2019-01-14T10:25:09.373Z,100585.46
2019-01-14T10:27:38.202Z,100589.84
2019-01-14T10:30:15.603Z,100586.94
2019-01-14T10:32:44.460Z,100588.80
2019-01-14T10:35:13.201Z,100594.05
2019-01-14T10:37:41.770Z,100594.72
2019-01-14T10:40:15.773Z,100590.22
2019-01-14T10:42:44.503Z,100593.69
2019-01-14T10:45:21.558Z,100598.76
2019-01-14T10:47:50.486Z,100611.32
2019-01-14T10:50:20.213Z,100617.05
2019-01-14T10:52:50.428Z,100611.00
2019-01-14T10:55:18.910Z,100623.36
2019-01-14T10:57:47.596Z,100624.90
2019-01-14T11:00:26.843Z,100625.76
2019-01-14T11:02:56.134Z,100640.57
2019-01-14T11:05:27.383Z,100632.51
2019-01-14T11:07:56.246Z,100636.31
2019-01-14T11:10:25.067Z,100641.73
2019-01-14T11:12:53.940Z,100639.66
2019-01-14T11:15:23.147Z,100641.48
2019-01-14T11:17:52.249Z,100654.70
2019-01-14T11:20:29.282Z,100658.20
2019-01-14T11:22:58.429Z,100649.59
2019-01-14T11:25:27.245Z,100648.77
2019-01-14T11:27:56.086Z,100657.25
2019-01-14T11:30:26.988Z,100660.64
2019-01-14T11:32:55.790Z,100663.73
2019-01-14T11:35:24.297Z,100663.54
2019-01-14T11:37:53.097Z,100658.52
2019-01-14T11:40:28.029Z,100651.72
2019-01-14T11:42:56.515Z,100648.72
2019-01-14T11:45:25.036Z,100662.09
2019-01-14T11:47:53.849Z,100667.44
2019-01-14T11:50:22.328Z,100669.88
2019-01-14T11:52:51.027Z,100683.02
2019-01-14T11:55:19.439Z,100684.79
2019-01-14T11:57:47.970Z,100682.85
2019-01-14T12:00:21.612Z,100688.91
2019-01-14T12:02:50.432Z,100691.50
2019-01-14T12:05:19.251Z,100683.48
2019-01-14T12:07:48.091Z,100682.66
2019-01-14T12:10:16.553Z,100682.53
2019-01-14T12:12:45.021Z,100681.31
2019-01-14T12:15:19.282Z,100692.59
2019-01-14T12:17:47.679Z,100699.89
2019-01-14T12:20:16.735Z,100697.62
2019-01-14T12:22:46.062Z,100702.20
2019-01-14T12:25:14.973Z,100702.65
2019-01-14T12:27:43.773Z,100706.00
2019-01-14T12:30:15.500Z,100708.49
2019-01-14T12:32:44.279Z,100710.89
2019-01-14T12:35:12.758Z,100707.41
2019-01-14T12:37:41.461Z,100710.76
2019-01-14T12:40:12.364Z,100712.94
2019-01-14T12:42:41.153Z,100709.66
2019-01-14T12:45:12.768Z,100707.72
2019-01-14T12:47:41.455Z,100709.45
2019-01-14T12:50:12.992Z,100717.20
2019-01-14T12:52:41.694Z,100721.41
2019-01-14T12:55:12.720Z,100709.18
2019-01-14T12:57:41.240Z,100720.46
2019-01-14T13:00:15.174Z,100803.95
2019-01-14T13:02:43.894Z,100800.00
2019-01-14T13:05:14.697Z,100788.99
2019-01-14T13:07:43.132Z,100773.92
2019-01-14T13:10:14.083Z,100778.92
2019-01-14T13:12:42.919Z,100782.84
2019-01-14T13:15:14.859Z,100766.00
2019-01-14T13:17:43.705Z,100771.61
2019-01-14T13:20:15.251Z,100774.78
2019-01-14T13:22:44.125Z,100762.31
2019-01-14T13:25:13.058Z,100775.14
2019-01-14T13:27:43.634Z,100785.26
2019-01-14T13:30:15.380Z,100774.77
2019-01-14T13:32:43.920Z,100777.20
2019-01-14T13:35:12.821Z,100765.50
2019-01-14T13:37:43.148Z,100776.48
2019-01-14T13:40:13.054Z,100782.53
2019-01-14T13:42:41.843Z,100790.02
2019-01-14T13:45:13.585Z,100783.03
2019-01-14T13:47:42.091Z,100788.92
2019-01-14T13:50:13.518Z,100794.09
2019-01-14T13:52:41.946Z,100801.77
2019-01-14T13:55:10.922Z,100807.29
2019-01-14T13:57:39.654Z,100810.44
2019-01-14T14:00:11.578Z,100804.00
2019-01-14T14:02:40.238Z,100808.31
2019-01-14T14:05:09.085Z,100811.30
2019-01-14T14:07:37.786Z,100814.64
2019-01-14T14:10:09.553Z,100818.30
2019-01-14T14:12:38.329Z,100817.48
2019-01-14T14:15:09.943Z,100824.08
2019-01-14T14:17:38.689Z,100837.22
2019-01-14T14:20:11.714Z,100826.41
2019-01-14T14:22:40.469Z,100837.25
2019-01-14T14:25:11.104Z,100841.80
2019-01-14T14:27:39.581Z,100836.16
2019-01-14T14:30:17.320Z,100849.24
2019-01-14T14:32:45.995Z,100847.83
2019-01-14T14:35:15.217Z,100860.45
2019-01-14T14:37:43.927Z,100870.13
2019-01-14T14:40:12.460Z,100865.81
2019-01-14T14:42:41.017Z,100869.78
2019-01-14T14:45:12.431Z,100865.72
2019-01-14T14:47:40.941Z,100874.09
2019-01-14T14:50:15.180Z,100876.63
2019-01-14T14:52:43.685Z,100887.58
2019-01-14T14:55:12.412Z,100907.80
2019-01-14T14:57:41.129Z,100897.72
2019-01-14T15:00:15.456Z,100915.86
2019-01-14T15:02:44.213Z,100908.66
2019-01-14T15:05:13.356Z,100912.70
2019-01-14T15:07:41.823Z,100921.91
2019-01-14T15:10:15.797Z,100928.70
2019-01-14T15:12:44.650Z,100919.44
2019-01-14T15:15:16.267Z,100926.52
2019-01-14T15:17:44.750Z,100920.19
2019-01-14T15:20:15.954Z,100923.47
2019-01-14T15:22:44.680Z,100933.55
2019-01-14T15:25:13.840Z,100931.73
2019-01-14T15:27:42.617Z,100937.81
2019-01-14T15:30:14.646Z,100948.20
2019-01-14T15:32:43.035Z,100950.73
2019-01-14T15:35:11.692Z,100960.95
2019-01-14T15:37:40.438Z,100958.83
2019-01-14T15:40:12.314Z,100970.83
2019-01-14T15:42:41.101Z,100980.78
2019-01-14T15:45:12.967Z,100979.45
2019-01-14T15:47:41.723Z,100982.80
2019-01-14T15:50:11.287Z,100984.59
2019-01-14T15:52:40.109Z,100987.22
2019-01-14T15:55:14.512Z,100987.90
2019-01-14T15:57:43.329Z,100994.17
2019-01-14T16:00:16.841Z,101004.30
2019-01-14T16:02:45.610Z,101003.91
2019-01-14T16:05:15.287Z,101008.22
2019-01-14T16:07:43.922Z,101009.89
2019-01-14T16:10:15.512Z,101017.20
2019-01-14T16:12:43.916Z,101020.48
2019-01-14T16:15:12.782Z,101020.08
2019-01-14T16:17:41.730Z,101024.68
2019-01-14T16:20:15.885Z,101031.81
2019-01-14T16:22:44.757Z,101037.22
2019-01-14T16:25:13.491Z,101032.55
2019-01-14T16:27:42.054Z,101033.41
2019-01-14T16:30:16.119Z,101035.55
2019-01-14T16:32:44.824Z,101041.41
2019-01-14T16:35:13.783Z,101041.81
2019-01-14T16:37:42.494Z,101040.08
2019-01-14T16:40:17.943Z,101040.55
2019-01-14T16:42:41.966Z,101041.81
2019-01-14T16:45:14.121Z,101046.02
2019-01-14T16:47:42.887Z,101044.34
2019-01-14T16:50:13.905Z,101048.61
2019-01-14T16:52:42.777Z,101050.67
2019-01-14T16:55:12.970Z,101041.41
2019-01-14T16:57:41.729Z,101050.74
2019-01-14T17:00:13.586Z,101057.14
2019-01-14T17:02:42.343Z,101056.40
2019-01-14T17:05:13.540Z,101057.53
2019-01-14T17:07:41.424Z,101061.73
2019-01-14T17:10:12.949Z,101059.20
2019-01-14T17:12:41.376Z,101065.47
2019-01-14T17:15:10.290Z,101063.34
2019-01-14T17:17:39.234Z,101072.54
2019-01-14T17:20:16.576Z,101077.20
2019-01-14T17:22:46.656Z,101088.87
2019-01-14T17:25:15.486Z,101091.57
2019-01-14T17:27:45.261Z,101091.57
2019-01-14T17:30:16.270Z,101091.11
2019-01-14T17:32:45.018Z,101099.03
2019-01-14T17:35:14.552Z,101102.03
2019-01-14T17:37:43.423Z,101105.09
2019-01-14T17:40:14.659Z,101111.49
2019-01-14T17:42:43.183Z,101107.56
2019-01-14T17:45:12.160Z,101101.63
2019-01-14T17:47:40.952Z,101110.96
2019-01-14T17:50:15.289Z,101115.95
2019-01-14T17:52:43.978Z,101118.42
2019-01-14T17:55:12.539Z,101118.42
2019-01-14T17:57:41.068Z,101114.56
2019-01-14T18:00:15.631Z,101119.22
2019-01-14T18:02:44.378Z,101116.22
2019-01-14T18:05:14.512Z,101120.02
2019-01-14T18:07:43.034Z,101123.95
2019-01-14T18:10:14.842Z,101127.28
2019-01-14T18:12:43.581Z,101128.15
2019-01-14T18:15:13.067Z,101130.22
2019-01-14T18:17:41.553Z,101134.02
2019-01-14T18:20:15.642Z,101142.08
2019-01-14T18:22:44.445Z,101147.53
2019-01-14T18:25:14.738Z,101147.14
2019-01-14T18:27:43.613Z,101147.47
2019-01-14T18:30:17.288Z,101159.80
2019-01-14T18:32:46.106Z,101162.39
2019-01-14T18:35:17.211Z,101166.27
2019-01-14T18:37:46.277Z,101178.12
2019-01-14T18:40:16.698Z,101179.79
2019-01-14T18:42:45.504Z,101181.92
2019-01-14T18:45:18.462Z,101181.92
2019-01-14T18:47:47.280Z,101191.58
2019-01-14T18:50:18.579Z,101192.84
2019-01-14T18:52:47.703Z,101189.84
2019-01-14T18:55:18.000Z,101196.04
2019-01-14T18:57:46.485Z,101195.58
2019-01-14T19:00:18.298Z,101200.17
2019-01-14T19:02:47.044Z,101197.64
2019-01-14T19:05:16.523Z,101205.23
2019-01-14T19:07:45.018Z,101209.83
2019-01-14T19:10:14.468Z,101198.91
2019-01-14T19:12:43.062Z,101204.77
2019-01-14T19:15:14.717Z,101207.95
2019-01-14T19:17:43.379Z,101208.75
2019-01-14T19:20:17.638Z,101217.61
2019-01-14T19:22:46.460Z,101218.41
2019-01-14T19:25:15.250Z,101227.74
2019-01-14T19:27:44.372Z,101222.50
2019-01-14T19:30:15.839Z,101229.95
2019-01-14T19:32:44.575Z,101228.16
2019-01-14T19:35:13.584Z,101228.74
2019-01-14T19:37:42.370Z,101230.73
2019-01-14T19:40:14.001Z,101243.28
2019-01-14T19:42:42.762Z,101240.14
2019-01-14T19:45:14.224Z,101249.33
2019-01-14T19:47:43.467Z,101244.84
2019-01-14T19:50:18.101Z,101245.24
2019-01-14T19:52:46.621Z,101249.04
2019-01-14T19:55:15.217Z,101253.77
2019-01-14T19:57:44.019Z,101249.98
2019-01-14T20:00:18.887Z,101253.23
2019-01-14T20:02:47.658Z,101256.63
2019-01-14T20:05:16.395Z,101265.02
2019-01-14T20:07:45.114Z,101262.55
2019-01-14T20:10:15.750Z,101257.89
2019-01-14T20:12:44.217Z,101261.69
2019-01-14T20:15:18.442Z,101262.09
2019-01-14T20:17:47.217Z,101265.88
2019-01-14T20:20:16.158Z,101262.95
2019-01-14T20:22:45.077Z,101270.55
2019-01-14T20:25:14.160Z,101278.13
2019-01-14T20:27:44.680Z,101275.13
2019-01-14T20:30:21.614Z,101277.20
2019-01-14T20:32:50.750Z,101280.98
2019-01-14T20:35:19.611Z,101279.80
2019-01-14T20:37:48.714Z,101280.59
2019-01-14T20:40:17.419Z,101280.66
2019-01-14T20:42:46.769Z,101284.78
2019-01-14T20:45:18.640Z,101282.73
2019-01-14T20:47:47.444Z,101283.20
2019-01-14T20:50:18.349Z,101276.33
2019-01-14T20:52:46.967Z,101277.73
2019-01-14T20:55:16.002Z,101271.88
2019-01-14T20:57:44.478Z,101271.73
2019-01-14T21:00:19.319Z,101269.60
2019-01-14T21:02:47.915Z,101271.27
2019-01-14T21:05:17.565Z,101266.50
2019-01-14T21:07:46.420Z,101262.34
2019-01-14T21:10:17.945Z,101265.23
2019-01-14T21:12:46.765Z,101269.42
2019-01-14T21:15:15.716Z,101281.61
2019-01-14T21:17:44.532Z,101271.88
2019-01-14T21:20:16.355Z,101273.15
2019-01-14T21:22:45.481Z,101271.48
2019-01-14T21:25:14.310Z,101273.62
2019-01-14T21:27:43.058Z,101271.81
2019-01-14T21:30:20.372Z,101271.34
2019-01-14T21:32:49.106Z,101277.52
2019-01-14T21:35:17.980Z,101279.90
2019-01-14T21:37:46.804Z,101290.27
2019-01-14T21:40:16.152Z,101285.89
2019-01-14T21:42:44.565Z,101294.20
2019-01-14T21:45:15.278Z,101295.72
2019-01-14T21:47:44.060Z,101293.44
2019-01-14T21:50:15.467Z,101299.61
2019-01-14T21:52:44.233Z,101305.45
2019-01-14T21:55:15.446Z,101300.00
2019-01-14T21:57:44.150Z,101306.17
2019-01-14T22:00:15.910Z,101301.80
2019-01-14T22:02:44.450Z,101300.86
2019-01-14T22:05:13.277Z,101295.09
2019-01-14T22:07:41.921Z,101292.09
2019-01-14T22:10:15.969Z,101287.91
2019-01-14T22:12:44.530Z,101295.89
2019-01-14T22:15:13.539Z,101290.36
2019-01-14T22:17:42.040Z,101288.37
2019-01-14T22:20:16.681Z,101298.80
2019-01-14T22:22:45.288Z,101302.12
2019-01-14T22:25:14.016Z,101302.98
2019-01-14T22:27:42.455Z,101305.83
2019-01-14T22:30:14.496Z,101305.36
2019-01-14T22:32:42.930Z,101310.88
2019-01-14T22:35:11.435Z,101312.16
2019-01-14T22:37:40.209Z,101307.41
2019-01-14T22:40:12.225Z,101309.08
2019-01-14T22:42:40.911Z,101313.73
2019-01-14T22:45:10.905Z,101319.58
2019-01-14T22:47:39.670Z,101320.61
2019-01-14T22:50:17.114Z,101316.95
2019-01-14T22:52:46.325Z,101322.71
2019-01-14T22:55:15.280Z,101325.56
2019-01-14T22:57:44.012Z,101323.82
2019-01-14T23:00:17.401Z,101325.88
2019-01-14T23:02:46.118Z,101326.91
2019-01-14T23:05:14.929Z,101328.64
2019-01-14T23:07:43.803Z,101321.45
2019-01-14T23:10:12.601Z,101311.34
2019-01-14T23:12:41.280Z,101314.66
2019-01-14T23:15:10.027Z,101313.72
2019-01-14T23:17:38.499Z,101320.90
2019-01-14T23:20:08.120Z,101322.64
2019-01-14T23:22:37.858Z,101326.11
2019-01-14T23:25:06.867Z,101327.14
2019-01-14T23:27:36.312Z,101326.34
2019-01-14T23:30:10.080Z,101330.93
2019-01-14T23:32:38.824Z,101326.34
2019-01-14T23:35:08.627Z,101329.34
2019-01-14T23:37:37.305Z,101334.72
2019-01-14T23:40:09.960Z,101331.69
2019-01-14T23:42:39.905Z,101326.63
2019-01-14T23:45:11.803Z,101324.89
2019-01-14T23:47:40.520Z,101331.21
2019-01-14T23:50:09.795Z,101330.27
2019-01-14T23:52:39.607Z,101329.47
2019-01-14T23:55:08.467Z,101324.89
2019-01-14T23:57:37.236Z,101320.23
